Time;durP1;ratioP1;P1;durP2;ratioP2;P2;SDS_P1;SDS_P2;PMS_P1;PMS_P2;Temp;Humidity;BMP_temperature;BMP_pressure;BME280_temperature;BME280_humidity;BME280_pressure;Samples;Min_cycle;Max_cycle;Signal;HPM_P1;HPM_P2
2022/01/28 00:01:24;;;;;;;;;;;;;;;-0.51;100.00;98714.36;1649214;86;20175;-67
2022/01/28 00:03:47;;;;;;;;;;;;;;;-0.51;100.00;98711.66;1648373;87;20178;-67
2022/01/28 00:06:15;;;;;;;;;;;;;;;-0.51;100.00;98714.36;1649241;87;21791;-67
2022/01/28 00:08:42;;;;;;;;;;;;;;;-0.51;100.00;98717.05;1623665;85;21310;-66
2022/01/28 00:11:10;;;;;;;;;;;;;;;-0.51;100.00;98707.08;1622755;87;20124;-67
2022/01/28 00:13:40;;;;;;;;;;;;;;;-0.49;100.00;98708.16;1622602;87;20184;-67
2022/01/28 00:16:50;;;;;;;;;;;;;;;-0.49;100.00;98709.52;1622687;88;20424;-67
2022/01/28 00:40:23;;;;;;;;;;;;;;;-0.39;100.00;98660.47;1617878;88;20461;-66
2022/01/28 00:42:50;;;;;;;;;;;;;;;-0.39;100.00;98655.62;1618147;87;20176;-66
2022/01/28 00:45:17;;;;;;;;;;;;;;;-0.39;100.00;98641.59;1617725;88;21079;-66
2022/01/28 00:47:44;;;;;;;;;;;;;;;-0.39;100.00;98644.83;1617756;87;20128;-67
2022/01/28 00:50:10;;;;;;;;;;;;;;;-0.40;100.00;98637.82;1617757;88;20097;-66
2022/01/28 00:52:38;;;;;;;;;;;;;;;-0.42;100.00;98628.65;1617746;88;20112;-67
2022/01/28 00:55:05;;;;;;;;;;;;;;;-0.43;100.00;98628.37;1618060;87;20460;-67
2022/01/28 00:57:31;;;;;;;;;;;;;;;-0.44;100.00;98623.25;1617943;87;21118;-67
2022/01/28 00:59:57;;;;;;;;;;;;;;;-0.43;100.00;98624.88;1617840;88;20175;-66
2022/01/28 01:02:24;;;;;;;;;;;;;;;-0.43;100.00;98616.78;1618121;87;20149;-67
2022/01/28 01:04:50;;;;;;;;;;;;;;;-0.43;100.00;98615.43;1617813;88;20133;-67
2022/01/28 01:07:16;;;;;;;;;;;;;;;-0.44;100.00;98607.07;1617753;87;20153;-67
2022/01/28 01:09:43;;;;;;;;;;;;;;;-0.45;100.00;98597.36;1617648;88;23349;-67
2022/01/28 01:12:11;;;;;;;;;;;;;;;-0.46;100.00;98597.09;1617637;88;20180;-67
2022/01/28 01:14:38;;;;;;;;;;;;;;;-0.46;100.00;98593.05;1617687;88;20176;-66
2022/01/28 01:17:23;;;;;;;;;;;;;;;-0.46;100.00;98593.86;1617673;88;20213;-66
2022/01/28 01:19:42;;;;;;;;;;;;;;;-0.46;100.00;98588.46;1616262;88;20185;-66
2022/01/28 01:22:07;;;;;;;;;;;;;;;-0.44;100.00;98589.00;1619200;87;21164;-66
2022/01/28 01:24:37;;;;;;;;;;;;;;;-0.44;100.00;98584.15;1622644;88;20124;-67
2022/01/28 01:27:02;;;;;;;;;;;;;;;-0.44;100.00;98585.50;1622530;88;20128;-66
2022/01/28 01:29:28;;;;;;;;;;;;;;;-0.43;100.00;98580.38;1622975;88;20152;-66
2022/01/28 01:32:02;;;;;;;;;;;;;;;-0.44;100.00;98578.76;1622875;88;20224;-65
2022/01/28 01:34:23;;;;;;;;;;;;;;;-0.45;100.00;98567.16;1622228;88;21823;-65
2022/01/28 01:36:50;;;;;;;;;;;;;;;-0.46;100.00;98560.15;1622660;88;20488;-66
2022/01/28 01:39:22;;;;;;;;;;;;;;;-0.46;100.00;98559.34;1622635;87;20162;-65
2022/01/28 01:41:52;;;;;;;;;;;;;;;-0.46;100.00;98557.99;1622302;88;20702;-65
2022/01/28 01:44:30;;;;;;;;;;;;;;;-0.46;100.00;98560.69;1622117;88;20232;-66
2022/01/28 01:47:16;;;;;;;;;;;;;;;-0.47;100.00;98561.77;1621328;88;21193;-65
2022/01/28 01:52:10;;;;;;;;;;;;;;;-0.48;100.00;98549.36;1623009;87;20190;-66
2022/01/28 01:54:38;;;;;;;;;;;;;;;-0.49;100.00;98541.00;1622790;88;20141;-65
2022/01/28 01:57:06;;;;;;;;;;;;;;;-0.49;100.00;98536.96;1623191;88;20212;-66
2022/01/28 01:59:33;;;;;;;;;;;;;;;-0.48;100.00;98539.92;1623087;88;21769;-67
2022/01/28 02:02:00;;;;;;;;;;;;;;;-0.49;100.00;98525.64;1622861;88;20153;-67
2022/01/28 02:04:26;;;;;;;;;;;;;;;-0.49;100.00;98540.47;1623049;88;20129;-67
2022/01/28 02:06:53;;;;;;;;;;;;;;;-0.50;100.00;98533.45;1622811;85;20588;-67
2022/01/28 02:09:19;;;;;;;;;;;;;;;-0.50;100.00;98529.95;1623044;87;20484;-67
2022/01/28 02:11:45;;;;;;;;;;;;;;;-0.52;100.00;98531.56;1622946;87;21169;-67
2022/01/28 02:14:12;;;;;;;;;;;;;;;-0.53;100.00;98531.30;1622726;87;20121;-68
2022/01/28 02:16:38;;;;;;;;;;;;;;;-0.53;100.00;98538.58;1622870;87;20160;-67
2022/01/28 02:19:05;;;;;;;;;;;;;;;-0.55;100.00;98525.90;1623256;88;20402;-67
2022/01/28 02:21:40;;;;;;;;;;;;;;;-0.55;100.00;98525.90;1622991;87;20483;-67
2022/01/28 02:24:05;;;;;;;;;;;;;;;-0.57;100.00;98524.01;1626381;88;21179;-67
2022/01/28 02:26:32;;;;;;;;;;;;;;;-0.59;100.00;98528.35;1627005;88;20207;-67
2022/01/28 02:29:06;;;;;;;;;;;;;;;-0.59;100.00;98524.84;1626730;88;20097;-66
2022/01/28 02:31:28;;;;;;;;;;;;;;;-0.59;100.00;98522.16;1625567;88;20974;-67
2022/01/28 02:33:56;;;;;;;;;;;;;;;-0.60;100.00;98517.84;1626747;88;20145;-67
2022/01/28 02:36:24;;;;;;;;;;;;;;;-0.60;100.00;98528.08;1627100;87;21138;-66
2022/01/28 02:38:51;;;;;;;;;;;;;;;-0.59;100.00;98528.35;1626846;88;20957;-68
2022/01/28 02:41:18;;;;;;;;;;;;;;;-0.59;100.00;98516.76;1626654;87;20424;-68
2022/01/28 02:44:04;;;;;;;;;;;;;;;-0.59;100.00;98520.27;1626808;88;20528;-67
2022/01/28 02:46:16;;;;;;;;;;;;;;;-0.59;100.00;98520.27;1623089;88;20204;-67
2022/01/28 02:48:52;;;;;;;;;;;;;;;-0.59;100.00;98506.78;1626794;87;21216;-68
2022/01/28 02:51:17;;;;;;;;;;;;;;;-0.58;100.00;98508.94;1625592;88;20189;-68
2022/01/28 02:54:13;;;;;;;;;;;;;;;-0.58;100.00;98507.59;1626784;88;20157;-65
2022/01/28 02:56:57;;;;;;;;;;;;;;;-0.58;100.00;98511.64;1619539;88;20495;-65
2022/01/28 02:58:42;;;;;;;;;;;;;;;-0.58;100.00;98512.98;1617198;85;20183;-65
2022/01/28 03:01:12;;;;;;;;;;;;;;;-0.58;100.00;98505.70;1638469;87;21173;-65
2022/01/28 03:03:39;;;;;;;;;;;;;;;-0.57;100.00;98509.19;1641453;86;20161;-65
2022/01/28 03:06:06;;;;;;;;;;;;;;;-0.57;100.00;98507.84;1653551;86;20094;-65
2022/01/28 03:08:33;;;;;;;;;;;;;;;-0.55;100.00;98508.38;1630021;87;20466;-66
2022/01/28 03:16:26;;;;;;;;;;;;;;;-0.56;100.00;98502.71;1651880;86;20181;-65
2022/01/28 03:18:57;;;;;;;;;;;;;;;-0.56;100.00;98506.22;1653133;87;20169;-66
2022/01/28 03:23:55;;;;;;;;;;;;;;;-0.58;100.00;98504.90;1620135;87;20190;-65
2022/01/28 03:26:24;;;;;;;;;;;;;;;-0.61;100.00;98501.39;1646962;87;21199;-66
2022/01/28 03:28:50;;;;;;;;;;;;;;;-0.64;100.00;98508.13;1647085;87;21008;-66
2022/01/28 03:31:18;;;;;;;;;;;;;;;-0.65;100.00;98503.81;1646980;87;20127;-66
2022/01/28 03:33:45;;;;;;;;;;;;;;;-0.64;100.00;98496.53;1647057;87;20207;-66
2022/01/28 03:36:12;;;;;;;;;;;;;;;-0.65;100.00;98486.83;1647002;87;20182;-66
2022/01/28 03:38:39;;;;;;;;;;;;;;;-0.67;100.00;98489.26;1647000;87;21150;-65
2022/01/28 03:41:12;;;;;;;;;;;;;;;-0.67;100.00;98473.62;1646833;87;20655;-66
2022/01/28 03:43:35;;;;;;;;;;;;;;;-0.67;100.00;98467.69;1646371;87;21019;-66
2022/01/28 03:46:01;;;;;;;;;;;;;;;-0.66;100.00;98476.59;1647084;87;20151;-65
2022/01/28 03:48:28;;;;;;;;;;;;;;;-0.65;100.00;98467.97;1646915;87;20154;-65
2022/01/28 03:50:54;;;;;;;;;;;;;;;-0.63;100.00;98471.20;1647134;87;21111;-66
2022/01/28 03:53:21;;;;;;;;;;;;;;;-0.61;100.00;98473.90;1646865;87;20126;-66
2022/01/28 03:55:47;;;;;;;;;;;;;;;-0.60;100.00;98471.47;1647050;87;20133;-66
2022/01/28 03:58:14;;;;;;;;;;;;;;;-0.59;100.00;98477.67;1647151;87;20149;-66
2022/01/28 04:00:41;;;;;;;;;;;;;;;-0.60;100.00;98464.73;1646913;87;20177;-66
2022/01/28 04:03:24;;;;;;;;;;;;;;;-0.59;100.00;98469.05;1646864;87;21195;-66
2022/01/28 04:11:27;;;;;;;;;;;;;;;-0.56;100.00;98464.44;1620694;88;20157;-66
2022/01/28 04:13:53;;;;;;;;;;;;;;;-0.54;100.00;98456.88;1617944;88;20149;-65
2022/01/28 04:47:03;;;;;;;;;;;;;;;-0.43;100.00;98448.26;1652528;85;20166;-65
2022/01/28 04:58:46;;;;;;;;;;;;;;;-0.41;100.00;98430.73;1617750;88;20096;-66
2022/01/28 05:09:44;;;;;;;;;;;;;;;-0.37;100.00;98422.37;1611407;88;20629;-64
2022/01/28 05:17:09;;;;;;;;;;;;;;;-0.34;100.00;98424.52;1617790;88;20152;-64
2022/01/28 05:27:27;;;;;;;;;;;;;;;-0.29;100.00;98414.27;1617955;88;20416;-67
2022/01/28 05:29:53;;;;;;;;;;;;;;;-0.28;100.00;98409.68;1617845;88;20459;-67
2022/01/28 05:32:19;;;;;;;;;;;;;;;-0.27;100.00;98413.45;1617972;88;22321;-65
2022/01/28 05:34:45;;;;;;;;;;;;;;;-0.26;100.00;98408.33;1617711;88;20169;-66
2022/01/28 05:37:12;;;;;;;;;;;;;;;-0.24;100.00;98425.05;1618017;88;20169;-66
2022/01/28 05:39:38;;;;;;;;;;;;;;;-0.23;100.00;98427.20;1617737;88;20531;-66
2022/01/28 05:42:06;;;;;;;;;;;;;;;-0.21;100.00;98422.34;1617681;88;20187;-66
2022/01/28 05:44:32;;;;;;;;;;;;;;;-0.19;100.00;98416.14;1617942;88;21785;-66
2022/01/28 05:47:03;;;;;;;;;;;;;;;-0.20;100.00;98423.42;1617616;88;20109;-66
2022/01/28 05:49:26;;;;;;;;;;;;;;;-0.18;100.00;98426.66;1617280;88;20153;-66
2022/01/28 05:51:52;;;;;;;;;;;;;;;-0.17;100.00;98421.53;1618043;88;20173;-66
2022/01/28 05:54:19;;;;;;;;;;;;;;;-0.15;100.00;98418.02;1617775;87;20149;-66
2022/01/28 05:56:46;;;;;;;;;;;;;;;-0.13;100.00;98412.34;1617262;88;21198;-65
2022/01/28 05:59:12;;;;;;;;;;;;;;;-0.11;100.00;98401.55;1618013;88;20452;-66
2022/01/28 06:01:38;;;;;;;;;;;;;;;-0.08;100.00;98404.23;1617870;88;20176;-66
2022/01/28 06:04:05;;;;;;;;;;;;;;;-0.08;100.00;98406.94;1617271;88;20192;-66
2022/01/28 06:06:32;;;;;;;;;;;;;;;-0.06;100.00;98406.13;1617999;87;20482;-66
2022/01/28 06:08:59;;;;;;;;;;;;;;;-0.06;100.00;98404.23;1595793;89;21251;-66
2022/01/28 06:11:25;;;;;;;;;;;;;;;-0.03;100.00;98411.78;1595569;90;20089;-66
2022/01/28 06:13:52;;;;;;;;;;;;;;;-0.01;100.00;98402.88;1595675;90;20109;-65
2022/01/28 06:16:19;;;;;;;;;;;;;;;0.02;100.00;98409.58;1595620;90;20212;-66
2022/01/28 06:18:45;;;;;;;;;;;;;;;0.04;100.00;98408.77;1595700;88;20188;-66
2022/01/28 06:21:11;;;;;;;;;;;;;;;0.06;100.00;98410.64;1595654;90;21126;-66
2022/01/28 06:23:38;;;;;;;;;;;;;;;0.07;100.00;98412.27;1595487;90;20132;-65
2022/01/28 06:26:05;;;;;;;;;;;;;;;0.10;100.00;98409.55;1595919;90;20192;-68
2022/01/28 06:28:31;;;;;;;;;;;;;;;0.13;100.00;98407.66;1595529;90;20164;-67
2022/01/28 06:30:57;;;;;;;;;;;;;;;0.13;100.00;98409.00;1595616;90;20468;-66
2022/01/28 06:33:24;;;;;;;;;;;;;;;0.16;100.00;98415.20;1603689;87;21810;-67
2022/01/28 06:35:50;;;;;;;;;;;;;;;0.17;100.00;98423.02;1602738;88;20121;-67
2022/01/28 06:38:16;;;;;;;;;;;;;;;0.19;100.00;98428.15;1595850;87;20132;-67
2022/01/28 06:40:42;;;;;;;;;;;;;;;0.21;100.00;98425.98;1612399;87;20178;-66
2022/01/28 06:43:09;;;;;;;;;;;;;;;0.22;100.00;98431.65;1605291;87;20467;-67
2022/01/28 06:45:39;;;;;;;;;;;;;;;0.23;100.00;98439.47;1604237;87;21147;-67
2022/01/28 06:48:07;;;;;;;;;;;;;;;0.26;100.00;98434.06;1608704;88;20132;-67
2022/01/28 06:50:34;;;;;;;;;;;;;;;0.24;100.00;98428.13;1595723;90;20206;-69
2022/01/28 06:53:00;;;;;;;;;;;;;;;0.24;100.00;98437.03;1595623;90;20153;-67
2022/01/28 06:55:26;;;;;;;;;;;;;;;0.24;100.00;98431.64;1595776;90;20169;-67
2022/01/28 06:57:54;;;;;;;;;;;;;;;0.25;100.00;98424.34;1600897;87;21174;-67
2022/01/28 07:00:20;;;;;;;;;;;;;;;0.26;100.00;98431.36;1604853;88;20472;-66
2022/01/28 07:02:46;;;;;;;;;;;;;;;0.26;100.00;98429.47;1600877;87;20484;-67
2022/01/28 07:05:12;;;;;;;;;;;;;;;0.28;100.00;98430.55;1621185;88;20501;-70
2022/01/28 07:07:39;;;;;;;;;;;;;;;0.27;100.00;98434.33;1612853;87;20207;-68
2022/01/28 07:10:05;;;;;;;;;;;;;;;0.25;100.00;98428.40;1621062;88;21215;-68
2022/01/28 07:12:32;;;;;;;;;;;;;;;0.27;100.00;98432.98;1620786;88;20628;-70
2022/01/28 07:14:58;;;;;;;;;;;;;;;0.28;100.00;98425.15;1619512;88;20178;-79
2022/01/28 07:17:24;;;;;;;;;;;;;;;0.28;100.00;98424.61;1620126;88;20503;-80
2022/01/28 07:19:51;;;;;;;;;;;;;;;0.31;100.00;98429.45;1615891;88;20514;-71
2022/01/28 07:22:17;;;;;;;;;;;;;;;0.34;100.00;98428.09;1615924;88;21917;-76
2022/01/28 07:24:44;;;;;;;;;;;;;;;0.38;100.00;98431.05;1615578;89;37491;-75
2022/01/28 07:27:11;;;;;;;;;;;;;;;0.42;100.00;98434.81;1615118;89;20195;-73
2022/01/28 07:29:37;;;;;;;;;;;;;;;0.46;100.00;98421.03;1615400;89;20460;-74
2022/01/28 07:32:04;;;;;;;;;;;;;;;0.51;100.00;98425.05;1616084;87;20519;-73
2022/01/28 07:34:31;;;;;;;;;;;;;;;0.57;100.00;98417.20;1616149;89;21742;-73
2022/01/28 07:36:57;;;;;;;;;;;;;;;0.62;100.00;98427.40;1615961;89;20172;-72
2022/01/28 07:39:23;;;;;;;;;;;;;;;0.67;100.00;98417.11;1615462;89;20208;-73
2022/01/28 07:41:49;;;;;;;;;;;;;;;0.72;100.00;98410.88;1615796;89;20205;-70
2022/01/28 07:44:16;;;;;;;;;;;;;;;0.75;100.00;98409.77;1615904;87;20212;-79
2022/01/28 07:46:49;;;;;;;;;;;;;;;0.83;100.00;98405.13;1619960;87;21133;-83
2022/01/28 07:49:21;;;;;;;;;;;;;;;0.88;100.00;98408.34;1628690;87;20526;-83
2022/01/28 07:51:55;;;;;;;;;;;;;;;0.93;100.00;98417.23;1602938;88;20157;-85
2022/01/28 07:54:20;;;;;;;;;;;;;;;0.96;100.00;98407.75;1628576;88;20186;-74
2022/01/28 07:56:55;;;;;;;;;;;;;;;0.99;100.00;98404.48;1628853;88;20506;-69
2022/01/28 07:59:23;;;;;;;;;;;;;;;0.98;100.00;98406.39;1628965;88;21088;-76
2022/01/28 08:01:58;;;;;;;;;;;;;;;0.97;100.00;98413.42;1607433;88;20176;-68
2022/01/28 08:04:26;;;;;;;;;;;;;;;0.93;100.00;98406.42;1623599;86;20136;-69
2022/01/28 08:06:55;;;;;;;;;;;;;;;0.89;100.00;98408.06;1606071;88;20140;-69
2022/01/28 08:09:25;;;;;;;;;;;;;;;0.82;100.00;98403.52;1605767;88;20177;-69
2022/01/28 08:11:53;;;;;;;;;;;;;;;0.73;100.00;98401.14;1606253;88;21134;-70
2022/01/28 08:14:24;;;;;;;;;;;;;;;0.69;100.00;98399.28;1606181;89;20498;-69
2022/01/28 08:16:52;;;;;;;;;;;;;;;0.65;100.00;98402.53;1599191;88;20145;-67
2022/01/28 08:19:25;;;;;;;;;;;;;;;0.65;100.00;98402.53;1632415;86;20152;-75
2022/01/28 08:21:58;;;;;;;;;;;;;;;0.66;100.00;98398.75;1621916;88;20466;-75
2022/01/28 08:24:28;;;;;;;;;;;;;;;0.71;100.00;98399.80;1632033;86;22203;-77
2022/01/28 08:26:58;;;;;;;;;;;;;;;0.76;100.00;98399.78;1599210;87;20124;-76
2022/01/28 08:29:32;;;;;;;;;;;;;;;0.82;100.00;98393.25;1606138;89;20180;-76
2022/01/28 08:31:55;;;;;;;;;;;;;;;0.90;100.00;98397.52;1605555;87;20856;-69
2022/01/28 08:34:26;;;;;;;;;;;;;;;0.98;100.00;98394.23;1606340;89;20144;-70
2022/01/28 08:36:54;;;;;;;;;;;;;;;1.03;100.00;98396.09;1605894;89;21079;-74
2022/01/28 08:39:25;;;;;;;;;;;;;;;1.09;100.00;98392.80;1595342;89;20145;-71
2022/01/28 08:41:54;;;;;;;;;;;;;;;1.12;99.94;98388.99;1605930;87;20187;-71
2022/01/28 08:44:24;;;;;;;;;;;;;;;1.16;100.00;98401.37;1605004;88;20180;-71
2022/01/28 08:46:57;;;;;;;;;;;;;;;1.20;99.81;98397.02;1603040;87;20231;-72
2022/01/28 08:49:25;;;;;;;;;;;;;;;1.22;99.69;98401.59;1593848;88;22144;-71
2022/01/28 08:51:58;;;;;;;;;;;;;;;1.24;99.31;98401.58;1595879;87;20205;-71
2022/01/28 08:54:31;;;;;;;;;;;;;;;1.26;98.87;98402.64;1585347;89;20214;-72
2022/01/28 08:56:56;;;;;;;;;;;;;;;1.28;98.55;98395.86;1608832;87;20185;-70
2022/01/28 08:59:27;;;;;;;;;;;;;;;1.33;98.29;98398.53;1606116;87;20165;-70
2022/01/28 09:01:58;;;;;;;;;;;;;;;1.42;98.40;98384.39;1598290;87;21166;-70
2022/01/28 09:04:30;;;;;;;;;;;;;;;1.55;98.33;98382.38;1594472;89;20180;-68
2022/01/28 09:07:03;;;;;;;;;;;;;;;1.71;98.25;98378.98;1603735;88;20189;-67
2022/01/28 09:09:35;;;;;;;;;;;;;;;1.88;97.03;98371.20;1598828;88;20091;-67
2022/01/28 09:12:19;;;;;;;;;;;;;;;2.07;97.28;98365.84;1619834;88;20202;-71
2022/01/28 09:14:35;;;;;;;;;;;;;;;2.25;95.21;98359.12;1618338;88;20572;-73
2022/01/28 09:17:01;;;;;;;;;;;;;;;2.33;94.74;98361.70;1620207;88;20134;-82
2022/01/28 09:19:35;;;;;;;;;;;;;;;2.35;94.36;98348.68;1619995;87;20126;-70
2022/01/28 09:21:59;;;;;;;;;;;;;;;2.32;93.87;98352.77;1619839;88;20186;-69
2022/01/28 09:24:25;;;;;;;;;;;;;;;2.33;93.78;98356.29;1620513;87;20178;-70
2022/01/28 09:26:52;;;;;;;;;;;;;;;2.32;93.52;98345.20;1619771;88;21998;-71
2022/01/28 09:29:21;;;;;;;;;;;;;;;2.32;93.01;98345.20;1620242;88;20186;-71
2022/01/28 09:31:46;;;;;;;;;;;;;;;2.28;92.49;98342.84;1620223;88;20190;-70
2022/01/28 09:34:13;;;;;;;;;;;;;;;2.19;92.65;98350.00;1620098;88;20489;-70
2022/01/28 09:36:39;;;;;;;;;;;;;;;2.13;93.08;98338.97;1620231;88;20488;-70
2022/01/28 09:39:06;;;;;;;;;;;;;;;2.06;93.51;98333.91;1620504;88;21841;-73
2022/01/28 09:41:34;;;;;;;;;;;;;;;2.04;93.88;98331.23;1620073;88;20190;-73
2022/01/28 09:44:02;;;;;;;;;;;;;;;1.99;94.00;98336.97;1620425;88;20186;-74
2022/01/28 09:46:28;;;;;;;;;;;;;;;1.97;93.98;98335.64;1619107;88;20196;-71
2022/01/28 09:48:55;;;;;;;;;;;;;;;1.92;94.21;98332.45;1630812;86;20206;-70
2022/01/28 09:51:22;;;;;;;;;;;;;;;1.90;94.22;98323.81;1631531;86;21151;-83
2022/01/28 09:53:49;;;;;;;;;;;;;;;1.86;94.24;98319.27;1631926;86;20174;-81
2022/01/28 09:56:15;;;;;;;;;;;;;;;1.80;94.26;98317.16;1631708;86;20125;-77
2022/01/28 09:58:48;;;;;;;;;;;;;;;1.81;94.66;98317.42;1631184;86;20184;-76
2022/01/28 10:01:14;;;;;;;;;;;;;;;1.84;94.88;98320.09;1631018;86;20441;-76
2022/01/28 10:03:46;;;;;;;;;;;;;;;1.88;94.98;98311.11;1631428;87;21732;-81
2022/01/28 10:06:14;;;;;;;;;;;;;;;1.94;94.71;98309.16;1631082;87;20144;-76
2022/01/28 10:08:42;;;;;;;;;;;;;;;1.96;93.88;98296.94;1582721;88;20161;-75
2022/01/28 10:11:14;;;;;;;;;;;;;;;1.95;94.16;98312.92;1594298;89;20187;-76
2022/01/28 10:16:26;;;;;;;;;;;;;;;2.19;94.38;98290.44;1606832;86;21165;-80
2022/01/28 10:18:57;;;;;;;;;;;;;;;2.33;93.62;98292.09;1620396;87;20207;-76
2022/01/28 10:21:33;;;;;;;;;;;;;;;2.42;92.70;98288.73;1632328;86;20450;-79
2022/01/28 10:24:09;;;;;;;;;;;;;;;2.41;91.57;98289.28;1631788;88;20126;-76
2022/01/28 10:26:48;;;;;;;;;;;;;;;2.32;91.01;98297.26;1631704;86;20213;-75
2022/01/28 10:29:25;;;;;;;;;;;;;;;2.25;91.14;98290.62;1631954;86;21235;-79
2022/01/28 10:32:00;;;;;;;;;;;;;;;2.20;91.47;98285.27;1611560;88;20161;-76
2022/01/28 10:34:50;;;;;;;;;;;;;;;2.20;91.18;98275.80;1631811;86;20218;-85
2022/01/28 10:37:27;;;;;;;;;;;;;;;2.24;91.72;98275.47;1621553;86;20294;-75
2022/01/28 10:40:00;;;;;;;;;;;;;;;2.54;92.46;98262.81;1631044;86;20206;-76
2022/01/28 10:42:37;;;;;;;;;;;;;;;3.29;91.45;98253.13;1631339;88;21106;-84
2022/01/28 10:45:16;;;;;;;;;;;;;;;3.88;86.64;98251.41;1630245;86;20207;-74
2022/01/28 10:47:44;;;;;;;;;;;;;;;4.01;84.64;98258.48;1628937;87;20476;-74
2022/01/28 10:50:29;;;;;;;;;;;;;;;3.89;83.43;98262.52;1620206;88;20143;-78
2022/01/28 10:53:08;;;;;;;;;;;;;;;3.63;82.81;98254.08;1618602;87;20223;-80
2022/01/28 10:55:48;;;;;;;;;;;;;;;3.36;83.50;98254.64;1609835;88;21569;-79
2022/01/28 10:58:27;;;;;;;;;;;;;;;3.14;84.25;98260.18;1573387;90;20140;-85
2022/01/28 11:00:54;;;;;;;;;;;;;;;2.95;84.58;98249.94;1593732;89;20196;-79
2022/01/28 11:03:27;;;;;;;;;;;;;;;2.84;85.65;98244.47;1572974;90;20132;-81
2022/01/28 11:05:58;;;;;;;;;;;;;;;2.82;86.13;98242.05;1594414;88;20541;-80
2022/01/28 11:08:26;;;;;;;;;;;;;;;2.79;85.60;98241.28;1574159;90;21146;-82
2022/01/28 11:10:52;;;;;;;;;;;;;;;2.86;85.76;98236.29;1594436;90;20206;-79
2022/01/28 11:13:19;;;;;;;;;;;;;;;2.99;85.31;98249.59;1594751;90;20177;-78
2022/01/28 11:15:46;;;;;;;;;;;;;;;3.06;84.85;98235.10;1594612;88;20117;-79
2022/01/28 11:18:15;;;;;;;;;;;;;;;3.03;84.77;98235.70;1594496;90;20185;-77
2022/01/28 11:21:08;;;;;;;;;;;;;;;2.92;84.77;98229.65;1554599;88;21782;-78
2022/01/28 11:23:55;;;;;;;;;;;;;;;2.77;84.83;98229.94;1594698;90;20154;-78
2022/01/28 11:26:31;;;;;;;;;;;;;;;2.61;85.66;98233.44;1594439;89;20192;-74
2022/01/28 11:29:02;;;;;;;;;;;;;;;2.50;86.05;98246.89;1594685;90;20188;-75
2022/01/28 11:31:54;;;;;;;;;;;;;;;2.41;86.43;98234.31;1594312;90;20213;-83
2022/01/28 11:34:31;;;;;;;;;;;;;;;2.36;86.74;98233.03;1597836;88;20110;-83
2022/01/28 11:37:06;;;;;;;;;;;;;;;2.27;86.73;98238.33;1614957;88;20117;-88
2022/01/28 11:39:37;;;;;;;;;;;;;;;2.19;86.87;98226.26;1613486;88;20107;-78
2022/01/28 11:42:18;;;;;;;;;;;;;;;2.13;87.20;98225.27;1616264;88;20202;-76
2022/01/28 11:44:56;;;;;;;;;;;;;;;2.09;87.97;98225.05;1615406;88;20155;-83
2022/01/28 11:47:27;;;;;;;;;;;;;;;2.08;87.99;98223.98;1596222;85;20965;-78
2022/01/28 11:49:59;;;;;;;;;;;;;;;2.07;87.81;98219.66;1610048;88;20603;-77
2022/01/28 11:52:32;;;;;;;;;;;;;;;2.09;87.68;98214.22;1620767;88;20206;-75
2022/01/28 11:55:31;;;;;;;;;;;;;;;2.14;87.28;98209.28;1630882;86;20720;-74
2022/01/28 11:58:01;;;;;;;;;;;;;;;2.15;87.43;98214.95;1631792;86;20146;-79
2022/01/28 12:00:39;;;;;;;;;;;;;;;2.19;87.33;98214.07;1631806;86;21163;-74
2022/01/28 12:03:22;;;;;;;;;;;;;;;2.20;86.85;98208.91;1631428;88;20090;-76
2022/01/28 12:05:57;;;;;;;;;;;;;;;2.19;86.81;98205.95;1631284;88;20158;-80
2022/01/28 12:08:32;;;;;;;;;;;;;;;2.16;87.00;98195.70;1616753;86;20146;-79
2022/01/28 12:11:06;;;;;;;;;;;;;;;2.13;86.86;98181.41;1627391;88;20501;-77
2022/01/28 12:13:32;;;;;;;;;;;;;;;2.12;86.95;98189.27;1630581;88;21281;-79
2022/01/28 12:16:01;;;;;;;;;;;;;;;2.12;86.74;98176.28;1630616;88;20213;-84
2022/01/28 12:18:48;;;;;;;;;;;;;;;2.09;86.40;98174.16;1630625;86;20138;-83
2022/01/28 12:21:25;;;;;;;;;;;;;;;2.05;86.38;98173.14;1630600;87;20203;-80
2022/01/28 12:23:53;;;;;;;;;;;;;;;2.01;86.69;98178.87;1630939;87;20179;-84
2022/01/28 12:26:21;;;;;;;;;;;;;;;1.96;86.81;98173.80;1629852;86;21807;-83
2022/01/28 12:28:54;;;;;;;;;;;;;;;1.93;86.81;98170.31;1629927;86;20118;-77
2022/01/28 12:31:24;;;;;;;;;;;;;;;1.88;87.10;98169.04;1631637;88;20180;-80
2022/01/28 12:34:07;;;;;;;;;;;;;;;1.87;87.20;98179.61;1631962;86;20643;-78
2022/01/28 12:36:38;;;;;;;;;;;;;;;1.84;87.14;98173.42;1625642;86;20222;-82
2022/01/28 12:39:14;;;;;;;;;;;;;;;1.80;87.31;98165.63;1606442;88;20112;-80
2022/01/28 12:41:52;;;;;;;;;;;;;;;1.79;87.62;98167.28;1605582;87;20171;-80
2022/01/28 12:44:21;;;;;;;;;;;;;;;1.78;87.77;98175.14;1577041;89;20139;-86
2022/01/28 12:46:59;;;;;;;;;;;;;;;1.76;87.79;98161.90;1600048;87;20143;-75
2022/01/28 12:49:26;;;;;;;;;;;;;;;1.74;87.98;98167.34;1613871;87;20169;-73
2022/01/28 12:51:58;;;;;;;;;;;;;;;1.71;88.23;98177.43;1595069;89;20244;-73
2022/01/28 12:54:44;;;;;;;;;;;;;;;1.69;88.39;98164.73;1605685;87;20143;-75
2022/01/28 12:57:13;;;;;;;;;;;;;;;1.66;88.64;98166.13;1605705;89;20156;-78
2022/01/28 12:59:42;;;;;;;;;;;;;;;1.63;88.94;98166.70;1606309;86;20170;-79
2022/01/28 13:02:08;;;;;;;;;;;;;;;1.62;89.32;98163.75;1605850;88;20205;-75
2022/01/28 13:10:22;;;;;;;;;;;;;;;1.57;90.98;98163.81;1606010;89;20164;-82
2022/01/28 13:12:52;;;;;;;;;;;;;;;1.52;92.06;98171.44;1602738;89;20660;-79
2022/01/28 13:15:20;;;;;;;;;;;;;;;1.48;92.97;98162.30;1594860;87;20136;-73
2022/01/28 13:17:58;;;;;;;;;;;;;;;1.42;93.78;98170.22;1595230;89;20629;-79
2022/01/28 13:20:35;;;;;;;;;;;;;;;1.35;94.58;98162.20;1605846;88;20192;-72
2022/01/28 13:23:05;;;;;;;;;;;;;;;1.28;95.58;98160.64;1605597;88;20179;-75
2022/01/28 13:25:41;;;;;;;;;;;;;;;1.20;96.60;98154.52;1605737;87;21044;-74
2022/01/28 13:28:22;;;;;;;;;;;;;;;1.14;97.56;98158.41;1604432;89;20181;-79
2022/01/28 13:31:03;;;;;;;;;;;;;;;1.12;98.37;98151.68;1604677;89;21200;-78
2022/01/28 13:33:31;;;;;;;;;;;;;;;1.08;98.84;98147.39;1576068;91;20201;-78
2022/01/28 13:36:03;;;;;;;;;;;;;;;1.05;99.53;98149.32;1592817;88;20164;-78
2022/01/28 13:38:38;;;;;;;;;;;;;;;1.04;99.95;98147.71;1601522;89;20183;-77
2022/01/28 13:41:25;;;;;;;;;;;;;;;1.03;100.00;98139.89;1594862;88;20537;-80
2022/01/28 13:44:00;;;;;;;;;;;;;;;1.02;100.00;98143.14;1605872;88;21173;-80
2022/01/28 13:46:26;;;;;;;;;;;;;;;1.02;100.00;98140.98;1615373;85;21026;-74
2022/01/28 13:48:54;;;;;;;;;;;;;;;1.01;100.00;98149.64;1614234;84;20185;-75
2022/01/28 13:51:22;;;;;;;;;;;;;;;1.03;100.00;98141.24;1697767;84;21948;-77
2022/01/28 13:56:37;;;;;;;;;;;;;;;1.05;100.00;98137.16;1700547;83;20146;-82
2022/01/28 13:59:24;;;;;;;;;;;;;;;1.05;100.00;98130.41;1699829;84;20237;-83
2022/01/28 14:01:59;;;;;;;;;;;;;;;1.05;99.79;98125.00;1700166;84;20429;-84
2022/01/28 14:04:33;;;;;;;;;;;;;;;1.09;99.55;98127.93;1675128;84;20119;-84
2022/01/28 14:07:20;;;;;;;;;;;;;;;1.10;99.27;98130.34;1693584;84;20177;-86
2022/01/28 14:09:59;;;;;;;;;;;;;;;1.12;98.70;98123.30;1673304;85;21235;-85
2022/01/28 14:12:43;;;;;;;;;;;;;;;1.15;98.56;98130.28;1674445;84;20132;-82
2022/01/28 14:16:17;;;;;;;;;;;;;;;1.17;98.02;98132.67;1641333;85;20135;-83
2022/01/28 14:18:01;;;;;;;;;;;;;;;1.19;97.77;98122.38;1662173;85;20148;-80
2022/01/28 14:20:25;;;;;;;;;;;;;;;1.21;97.18;98132.35;1674005;85;20179;-86
2022/01/28 14:22:59;;;;;;;;;;;;;;;1.22;97.00;98141.52;1673810;85;21897;-86
2022/01/28 14:25:30;;;;;;;;;;;;;;;1.23;96.96;98126.91;1672493;85;20168;-80
2022/01/28 14:28:37;;;;;;;;;;;;;;;1.21;96.96;98133.16;1671752;84;20152;-84
2022/01/28 14:30:55;;;;;;;;;;;;;;;1.20;97.11;98124.79;1648350;85;20181;-76
2022/01/28 14:33:13;;;;;;;;;;;;;;;1.18;97.38;98124.27;1672718;84;20172;-73
2022/01/28 14:35:41;;;;;;;;;;;;;;;1.17;97.62;98126.72;1672828;84;20639;-78
2022/01/28 14:38:08;;;;;;;;;;;;;;;1.14;97.93;98129.22;1629604;85;20192;-75
2022/01/28 14:40:35;;;;;;;;;;;;;;;1.11;98.20;98123.84;1673356;84;20176;-78
2022/01/28 14:43:02;;;;;;;;;;;;;;;1.09;98.57;98117.92;1673287;85;20139;-78
2022/01/28 14:45:30;;;;;;;;;;;;;;;1.07;98.73;98113.90;1672729;85;20183;-79
2022/01/28 14:47:57;;;;;;;;;;;;;;;1.04;99.40;98116.63;1673158;84;21787;-73
2022/01/28 14:50:23;;;;;;;;;;;;;;;1.01;99.92;98112.35;1654999;84;20578;-76
2022/01/28 14:52:49;;;;;;;;;;;;;;;0.96;100.00;98114.56;1666573;84;20206;-73